Bangui MPoko International Airport


Codes: FEFF/BGF
Name: Bangui MPoko International Airport
City: Bangui
Country: Central African Republic
Elevation: 1208 ft.
Wikipedia:

Photos at Bangui MPoko International Airport


   Photos courtesy of SpottingLog. You can add your own sightings and photos by signing up for a free trial today.



No photos found.

Weather at Bangui MPoko International Airport


Time (UTC)DescriptionTempratureWindCloud coverageVisibilityPressureHumidity
18-Apr-2024 00:00Scattered Clouds29°C7 mph, S33%10000m1009hPa66%
18-Apr-2024 03:00Broken Clouds27°C2 mph, S67%10000m1009hPa66%
18-Apr-2024 06:00Overcast Clouds27°C4 mph, SW98%10000m1010hPa64%
18-Apr-2024 09:00Broken Clouds32°C4 mph, SE75%10000m1011hPa50%
18-Apr-2024 12:00Broken Clouds31°C4 mph, SE81%10000m1008hPa53%
18-Apr-2024 15:00Overcast Clouds34°C4 mph, SW89%10000m1004hPa42%
18-Apr-2024 18:00Broken Clouds28°C2 mph, SE56%10000m1007hPa59%
18-Apr-2024 21:00Broken Clouds26°C4 mph, SW62%10000m1009hPa68%
19-Apr-2024 00:00Broken Clouds25°C4 mph, S79%10000m1007hPa74%
19-Apr-2024 03:00Overcast Clouds25°C4 mph, S100%10000m1008hPa78%
19-Apr-2024 06:00Overcast Clouds26°C2 mph, SW100%10000m1010hPa76%
19-Apr-2024 09:00Overcast Clouds34°C9 mph, S98%10000m1011hPa46%
19-Apr-2024 12:00Overcast Clouds37°C9 mph, S99%10000m1006hPa34%
19-Apr-2024 15:00Light Rain31°C9 mph, S100%10000m1006hPa57%
19-Apr-2024 18:00Overcast Clouds28°C7 mph, S100%10000m1006hPa64%
19-Apr-2024 21:00Overcast Clouds27°C4 mph, S100%10000m1008hPa69%
20-Apr-2024 00:00Overcast Clouds25°C4 mph, S100%10000m1008hPa76%
20-Apr-2024 03:00Overcast Clouds25°C2 mph, SE100%10000m1008hPa76%
20-Apr-2024 06:00Overcast Clouds26°C4 mph, SE100%10000m1009hPa70%
20-Apr-2024 09:00Overcast Clouds34°C9 mph, SW97%10000m1009hPa40%
20-Apr-2024 12:00Overcast Clouds38°C9 mph, SW98%10000m1006hPa31%
20-Apr-2024 15:00Light Rain30°C7 mph, SE100%10000m1005hPa56%
20-Apr-2024 18:00Light Rain27°C7 mph, S100%10000m1006hPa65%
20-Apr-2024 21:00Overcast Clouds25°C2 mph, SE95%10000m1008hPa68%
21-Apr-2024 00:00Light Rain23°C4 mph, S93%10000m1008hPa78%
21-Apr-2024 03:00Overcast Clouds22°C2 mph, S93%10000m1008hPa81%
21-Apr-2024 06:00Broken Clouds25°C4 mph, SE80%10000m1010hPa64%
21-Apr-2024 09:00Light Rain29°C7 mph, S97%10000m1010hPa54%
21-Apr-2024 12:00Light Rain29°C2 mph, S98%10000m1008hPa54%
21-Apr-2024 15:00Overcast Clouds34°C2 mph, S95%10000m1004hPa38%
21-Apr-2024 18:00Broken Clouds27°C4 mph, E81%10000m1005hPa56%
21-Apr-2024 21:00Few Clouds26°C2 mph, E24%10000m1008hPa61%
22-Apr-2024 00:00Few Clouds24°C4 mph, W21%10000m1008hPa71%
22-Apr-2024 03:00Overcast Clouds23°C2 mph, S98%10000m1008hPa79%
22-Apr-2024 06:00Overcast Clouds26°C4 mph, S99%10000m1010hPa66%
22-Apr-2024 09:00Overcast Clouds33°C7 mph, S88%10000m1009hPa43%
22-Apr-2024 12:00Broken Clouds39°C4 mph, S71%10000m1005hPa28%
22-Apr-2024 15:00Broken Clouds39°C7 mph, SE56%10000m1002hPa26%
22-Apr-2024 18:00Light Rain30°C4 mph, E57%10000m1004hPa47%
22-Apr-2024 21:00Light Rain25°C4 mph, SE93%10000m1008hPa80%